Bethel, Oklahoma
Current Conditions -  °F | °C
As of 7:55 AM on Monday 24 Nov 2014 (Local Time) from K4O4 Reporting Station
Clear Clear  
Wind Chill: 39°   Ceiling: Unl
Heat Index: 43°   Visibility: 10mi
Dew Point: 34°   Wind: 7mph
Humidity: 70%   Direction: 290°WNW
Pressure: 29.93"   Gusts: NA
Location:  34.36°N, 94.84°W
Report Text: K4O4 241355Z AUTO 29006KT 10SM CLR 06/01 A2993 RMK AO2
Loading
Personal Weather Stations






























Interactive Weather Map New forecast layout! Learn more

10-Day Weather Forecast

Advertisements
Track Severe Weather on mobile